createdAt,value
2022-10-08T00:01:12.874Z,1
2022-10-08T00:02:56.609Z,1
2022-10-08T00:04:40.279Z,1
2022-10-08T00:06:23.976Z,2
2022-10-08T00:08:07.727Z,1
2022-10-08T00:09:51.402Z,1
2022-10-08T00:11:35.119Z,1
2022-10-08T00:13:18.793Z,1
2022-10-08T00:15:02.730Z,1
2022-10-08T00:16:46.247Z,1
2022-10-08T00:18:29.941Z,1
2022-10-08T00:20:13.609Z,1
2022-10-08T00:21:57.299Z,0
2022-10-08T00:23:40.998Z,0
2022-10-08T00:25:24.707Z,0
2022-10-08T00:27:08.454Z,0
2022-10-08T00:28:52.136Z,1
2022-10-08T00:30:35.817Z,0
2022-10-08T00:32:19.498Z,0
2022-10-08T00:34:03.251Z,0
2022-10-08T00:35:46.946Z,0
2022-10-08T00:37:30.645Z,1
2022-10-08T00:40:58.016Z,0
2022-10-08T00:42:41.825Z,0
2022-10-08T00:44:25.434Z,0
2022-10-08T00:46:09.107Z,0
2022-10-08T00:47:52.870Z,1
2022-10-08T00:49:36.555Z,0
2022-10-08T00:51:20.221Z,1
2022-10-08T00:53:03.912Z,0
2022-10-08T00:54:47.611Z,0
2022-10-08T00:56:31.321Z,1
2022-10-08T00:58:15.083Z,0
2022-10-08T00:59:58.742Z,0
2022-10-08T01:01:42.433Z,1
2022-10-08T01:03:26.124Z,1
2022-10-08T01:06:53.522Z,0
2022-10-08T01:08:37.274Z,0
2022-10-08T01:10:20.978Z,0
2022-10-08T01:12:04.638Z,0
2022-10-08T01:13:48.319Z,0
2022-10-08T01:15:32.031Z,0
2022-10-08T01:17:15.729Z,0
2022-10-08T01:18:59.475Z,0
2022-10-08T01:20:43.164Z,0
2022-10-08T01:22:26.834Z,0
2022-10-08T01:24:10.530Z,0
2022-10-08T01:25:54.248Z,0
2022-10-08T01:27:37.970Z,1
2022-10-08T01:29:21.679Z,0
2022-10-08T01:31:05.358Z,0
2022-10-08T01:32:49.044Z,0
2022-10-08T01:34:32.749Z,0
2022-10-08T01:36:16.450Z,0
2022-10-08T01:38:00.203Z,0
2022-10-08T01:39:43.946Z,0
2022-10-08T01:41:27.571Z,0
2022-10-08T01:43:11.263Z,0
2022-10-08T01:44:54.961Z,0
2022-10-08T01:46:38.679Z,0
2022-10-08T01:48:22.416Z,1
2022-10-08T01:50:06.085Z,0
2022-10-08T01:51:49.787Z,0
2022-10-08T01:53:33.526Z,0
2022-10-08T01:55:17.170Z,0
2022-10-08T01:57:00.869Z,0
2022-10-08T01:58:44.614Z,1
2022-10-08T02:00:28.289Z,1
2022-10-08T02:02:11.975Z,0
2022-10-08T02:03:55.677Z,0
2022-10-08T02:05:39.389Z,0
2022-10-08T02:07:23.076Z,0
2022-10-08T02:09:06.818Z,0
2022-10-08T02:10:50.497Z,0
2022-10-08T02:12:34.234Z,0
2022-10-08T02:14:17.871Z,0
2022-10-08T02:16:01.709Z,1
2022-10-08T02:17:45.381Z,0
2022-10-08T02:19:29.022Z,0
2022-10-08T02:21:12.705Z,0
2022-10-08T02:22:56.386Z,0
2022-10-08T02:24:40.079Z,0
2022-10-08T02:26:23.779Z,1
2022-10-08T02:28:07.547Z,0
2022-10-08T02:29:51.225Z,0
2022-10-08T02:31:34.913Z,0
2022-10-08T02:33:18.635Z,0
2022-10-08T02:35:02.335Z,0
2022-10-08T02:36:46.051Z,1
2022-10-08T02:38:29.750Z,0
2022-10-08T02:40:13.427Z,1
2022-10-08T02:41:57.111Z,0
2022-10-08T02:43:40.803Z,0
2022-10-08T02:45:24.541Z,0
2022-10-08T02:47:08.208Z,1
2022-10-08T02:48:51.963Z,0
2022-10-08T02:50:35.636Z,0
2022-10-08T02:52:19.323Z,0
2022-10-08T02:54:03.032Z,0
2022-10-08T02:55:46.715Z,0
2022-10-08T02:57:30.422Z,0
2022-10-08T02:59:14.165Z,0
2022-10-08T03:00:57.844Z,0
2022-10-08T03:02:41.552Z,0
2022-10-08T03:04:25.238Z,0
2022-10-08T03:06:08.952Z,0
2022-10-08T03:07:52.616Z,0
2022-10-08T03:09:36.368Z,0
2022-10-08T03:11:20.045Z,0
2022-10-08T03:13:03.728Z,1
2022-10-08T03:14:47.438Z,0
2022-10-08T03:16:31.136Z,0
2022-10-08T03:18:14.892Z,0
2022-10-08T03:19:58.572Z,0
2022-10-08T03:21:42.279Z,0
2022-10-08T03:23:25.954Z,1
2022-10-08T03:25:09.662Z,0
2022-10-08T03:26:53.346Z,0
2022-10-08T03:28:37.094Z,0
2022-10-08T03:30:20.849Z,0
2022-10-08T03:32:04.453Z,1
2022-10-08T03:33:48.150Z,0
2022-10-08T03:35:31.846Z,0
2022-10-08T03:37:15.552Z,0
2022-10-08T03:38:59.302Z,0
2022-10-08T03:40:42.998Z,1
2022-10-08T03:42:26.656Z,0
2022-10-08T03:44:10.379Z,0
2022-10-08T03:45:54.049Z,0
2022-10-08T03:47:37.745Z,0
2022-10-08T03:49:21.506Z,1
2022-10-08T03:51:05.186Z,0
2022-10-08T03:52:48.865Z,0
2022-10-08T03:54:32.632Z,0
2022-10-08T03:56:16.253Z,0
2022-10-08T03:57:59.961Z,0
2022-10-08T03:59:43.709Z,0
2022-10-08T04:01:27.391Z,0
2022-10-08T04:03:11.077Z,0
2022-10-08T04:04:54.777Z,0
2022-10-08T04:06:38.486Z,0
2022-10-08T04:08:22.237Z,0
2022-10-08T04:10:05.910Z,0
2022-10-08T04:11:49.601Z,0
2022-10-08T04:13:33.286Z,0
2022-10-08T04:15:16.988Z,0
2022-10-08T04:17:00.685Z,0
2022-10-08T04:18:44.459Z,0
2022-10-08T04:20:28.119Z,1
2022-10-08T04:22:11.798Z,0
2022-10-08T04:23:55.505Z,1
2022-10-08T04:25:39.196Z,0
2022-10-08T04:27:22.917Z,0
2022-10-08T04:29:06.640Z,0
2022-10-08T04:30:50.323Z,0
2022-10-08T04:32:34.004Z,0
2022-10-08T04:34:17.704Z,0
2022-10-08T04:36:01.403Z,0
2022-10-08T04:37:45.104Z,2
2022-10-08T04:39:28.878Z,0
2022-10-08T04:41:12.541Z,0
2022-10-08T04:42:56.252Z,0
2022-10-08T04:44:39.904Z,1
2022-10-08T04:46:23.599Z,0
2022-10-08T04:48:07.371Z,0
2022-10-08T04:49:51.055Z,0
2022-10-08T04:51:34.736Z,0
2022-10-08T04:53:18.412Z,0
2022-10-08T04:55:02.121Z,0
2022-10-08T04:56:45.811Z,0
2022-10-08T04:58:29.582Z,0
2022-10-08T05:00:13.260Z,0
2022-10-08T05:01:56.963Z,0
2022-10-08T05:03:40.645Z,0
2022-10-08T05:05:24.342Z,0
2022-10-08T05:07:08.043Z,0
2022-10-08T05:08:51.912Z,0
2022-10-08T05:10:35.467Z,1
2022-10-08T05:12:19.145Z,1
2022-10-08T05:14:02.849Z,0
2022-10-08T05:15:46.545Z,0
2022-10-08T05:17:30.312Z,0
2022-10-08T05:19:13.985Z,0
2022-10-08T05:20:57.667Z,0
2022-10-08T05:22:41.402Z,0
2022-10-08T05:24:25.055Z,1
2022-10-08T05:26:08.738Z,1
2022-10-08T05:27:52.522Z,1
2022-10-08T05:29:36.244Z,2
2022-10-08T05:31:19.882Z,1
2022-10-08T05:33:03.552Z,0
2022-10-08T05:34:47.250Z,2
2022-10-08T05:36:31.039Z,2
2022-10-08T05:38:14.724Z,3
2022-10-08T05:39:58.436Z,4
2022-10-08T05:41:42.163Z,3
2022-10-08T05:43:25.809Z,4
2022-10-08T05:45:09.476Z,5
2022-10-08T05:46:53.162Z,7
2022-10-08T05:48:36.919Z,8
2022-10-08T05:50:20.599Z,9
2022-10-08T05:52:04.279Z,9
2022-10-08T05:53:48.052Z,9
2022-10-08T05:55:31.687Z,9
2022-10-08T05:57:15.446Z,10
2022-10-08T05:58:59.124Z,12
2022-10-08T06:00:42.812Z,14
2022-10-08T06:02:26.485Z,532
2022-10-08T06:04:10.202Z,444
2022-10-08T06:05:53.963Z,507
2022-10-08T06:07:37.719Z,605
2022-10-08T06:09:21.325Z,677
2022-10-08T06:11:05.009Z,637
2022-10-08T06:14:32.427Z,770
2022-10-08T06:16:16.171Z,775
2022-10-08T06:17:59.858Z,776
2022-10-08T06:19:43.574Z,776
2022-10-08T06:21:27.250Z,773
2022-10-08T06:23:10.911Z,775
2022-10-08T06:24:54.625Z,775
2022-10-08T06:26:38.378Z,775
2022-10-08T06:28:22.061Z,774
2022-10-08T06:30:05.737Z,775
2022-10-08T06:31:49.425Z,776
2022-10-08T06:33:33.230Z,775
2022-10-08T06:35:16.900Z,775
2022-10-08T06:37:00.522Z,776
2022-10-08T06:38:44.287Z,776
2022-10-08T06:40:27.942Z,775
2022-10-08T06:42:11.630Z,775
2022-10-08T06:43:55.362Z,776
2022-10-08T06:45:39.020Z,775
2022-10-08T06:47:22.810Z,775
2022-10-08T06:49:06.512Z,776
2022-10-08T06:50:50.204Z,775
2022-10-08T06:52:33.879Z,776
2022-10-08T06:54:17.569Z,775
2022-10-08T06:56:01.234Z,776
2022-10-08T06:57:45.044Z,776
2022-10-08T06:59:28.674Z,776
2022-10-08T07:01:12.363Z,776
2022-10-08T07:02:56.047Z,776
2022-10-08T07:04:39.750Z,775
2022-10-08T07:06:23.454Z,776
2022-10-08T07:08:07.271Z,776
2022-10-08T07:09:50.891Z,776
2022-10-08T07:11:34.557Z,776
2022-10-08T07:13:18.311Z,775
2022-10-08T07:15:01.973Z,776
2022-10-08T07:16:45.724Z,776
2022-10-08T07:18:29.402Z,773
2022-10-08T07:20:13.084Z,776
2022-10-08T07:21:56.768Z,776
2022-10-08T07:23:40.500Z,776
2022-10-08T07:25:24.248Z,775
2022-10-08T07:27:07.923Z,776
2022-10-08T07:28:51.604Z,776
2022-10-08T07:30:35.288Z,776
2022-10-08T07:32:18.991Z,776
2022-10-08T07:34:02.759Z,777
2022-10-08T07:35:46.457Z,776
2022-10-08T07:37:30.162Z,777
2022-10-08T07:39:13.841Z,776
2022-10-08T07:40:57.493Z,776
2022-10-08T07:42:41.283Z,776
2022-10-08T07:44:24.895Z,777
2022-10-08T07:46:08.589Z,776
2022-10-08T07:47:52.333Z,776
2022-10-08T07:49:36.091Z,777
2022-10-08T07:51:19.701Z,776
2022-10-08T07:53:03.407Z,777
2022-10-08T07:54:47.099Z,778
2022-10-08T07:56:30.845Z,776
2022-10-08T07:58:14.557Z,777
2022-10-08T07:59:58.220Z,777
2022-10-08T08:01:41.901Z,777
2022-10-08T08:03:25.615Z,777
2022-10-08T08:05:09.314Z,778
2022-10-08T08:06:53.067Z,777
2022-10-08T08:08:36.746Z,778
2022-10-08T08:10:20.423Z,777
2022-10-08T08:12:04.115Z,778
2022-10-08T08:13:47.847Z,777
2022-10-08T08:15:31.544Z,777
2022-10-08T08:17:15.270Z,778
2022-10-08T08:18:58.946Z,778
2022-10-08T08:20:42.644Z,778
2022-10-08T08:22:26.337Z,778
2022-10-08T08:24:10.048Z,777
2022-10-08T08:25:53.811Z,778
2022-10-08T08:27:37.592Z,778
2022-10-08T08:29:21.156Z,778
2022-10-08T08:31:04.845Z,777
2022-10-08T08:32:48.556Z,778
2022-10-08T08:34:32.264Z,778
2022-10-08T08:36:15.994Z,778
2022-10-08T08:37:59.692Z,777
2022-10-08T08:39:43.375Z,778
2022-10-08T08:41:27.060Z,775
2022-10-08T08:43:10.747Z,778
2022-10-08T08:44:54.462Z,777
2022-10-08T08:46:38.204Z,778
2022-10-08T08:48:21.908Z,778
2022-10-08T08:50:05.693Z,776
2022-10-08T08:51:49.304Z,778
2022-10-08T08:53:33.051Z,778
2022-10-08T08:55:16.738Z,777
2022-10-08T08:57:00.407Z,777
2022-10-08T08:58:44.119Z,777
2022-10-08T09:00:27.795Z,778
2022-10-08T09:02:11.489Z,777
2022-10-08T09:03:55.250Z,778
2022-10-08T09:05:38.996Z,778
2022-10-08T09:07:22.629Z,778
2022-10-08T09:09:06.364Z,778
2022-10-08T09:10:50.007Z,777
2022-10-08T09:12:33.755Z,777
2022-10-08T09:14:17.498Z,777
2022-10-08T09:16:01.137Z,778
2022-10-08T09:17:44.830Z,778
2022-10-08T09:19:28.520Z,777
2022-10-08T09:21:12.236Z,778
2022-10-08T09:22:55.918Z,777
2022-10-08T09:24:39.664Z,777
2022-10-08T09:26:23.364Z,778
2022-10-08T09:28:07.152Z,778
2022-10-08T09:29:50.718Z,778
2022-10-08T09:31:34.418Z,778
2022-10-08T09:33:18.205Z,778
2022-10-08T09:35:01.916Z,778
2022-10-08T09:36:45.654Z,778
2022-10-08T09:38:29.232Z,777
2022-10-08T09:40:12.946Z,778
2022-10-08T09:41:56.785Z,778
2022-10-08T09:43:40.387Z,778
2022-10-08T09:45:24.078Z,777
2022-10-08T09:47:07.847Z,778
2022-10-08T09:48:51.466Z,778
2022-10-08T09:50:35.140Z,778
2022-10-08T09:52:18.934Z,778
2022-10-08T09:54:02.600Z,778
2022-10-08T09:55:46.277Z,778
2022-10-08T09:57:29.957Z,778
2022-10-08T09:59:13.643Z,778
2022-10-08T10:00:57.419Z,778
2022-10-08T10:02:41.162Z,777
2022-10-08T10:04:24.854Z,778
2022-10-08T10:06:08.498Z,778
2022-10-08T10:07:52.158Z,777
2022-10-08T10:09:35.871Z,777
2022-10-08T10:11:19.548Z,777
2022-10-08T10:13:03.390Z,778
2022-10-08T10:14:47.037Z,778
2022-10-08T10:16:30.684Z,778
2022-10-08T10:18:14.375Z,778
2022-10-08T10:19:58.073Z,778
2022-10-08T10:21:41.783Z,778
2022-10-08T10:23:25.566Z,778
2022-10-08T10:26:52.898Z,778
2022-10-08T10:28:36.585Z,778
2022-10-08T10:30:20.320Z,777
2022-10-08T10:32:04.005Z,778
2022-10-08T10:33:47.741Z,778
2022-10-08T10:35:31.552Z,777
2022-10-08T10:37:15.100Z,778
2022-10-08T10:38:58.803Z,778
2022-10-08T10:40:42.498Z,778
2022-10-08T10:42:26.229Z,778
2022-10-08T10:44:09.943Z,778
2022-10-08T10:45:53.618Z,778
2022-10-08T10:47:37.333Z,778
2022-10-08T10:49:21.067Z,778
2022-10-08T10:51:04.690Z,778
2022-10-08T10:52:48.479Z,778
2022-10-08T10:54:32.149Z,778
2022-10-08T10:56:15.825Z,778
2022-10-08T10:57:59.504Z,778
2022-10-08T10:59:43.235Z,778
2022-10-08T11:01:26.919Z,777
2022-10-08T11:03:10.596Z,777
2022-10-08T11:04:54.348Z,777
2022-10-08T11:06:38.032Z,777
2022-10-08T11:08:21.718Z,778
2022-10-08T11:10:05.448Z,778
2022-10-08T11:11:49.124Z,778
2022-10-08T11:13:32.886Z,778
2022-10-08T11:15:16.560Z,778
2022-10-08T11:17:00.256Z,778
2022-10-08T11:18:43.931Z,778
2022-10-08T11:20:27.635Z,777
2022-10-08T11:22:11.396Z,778
2022-10-08T11:23:55.129Z,777
2022-10-08T11:25:38.765Z,777
2022-10-08T11:27:22.441Z,777
2022-10-08T11:29:06.187Z,777
2022-10-08T11:30:49.857Z,778
2022-10-08T11:32:33.547Z,778
2022-10-08T11:34:17.286Z,778
2022-10-08T11:36:00.965Z,778
2022-10-08T11:37:44.710Z,777
2022-10-08T11:39:28.386Z,778
2022-10-08T11:41:12.040Z,778
2022-10-08T11:42:55.822Z,778
2022-10-08T11:44:39.523Z,775
2022-10-08T11:46:23.192Z,778
2022-10-08T11:48:06.888Z,778
2022-10-08T11:49:50.621Z,777
2022-10-08T11:51:34.330Z,775
2022-10-08T11:53:18.015Z,778
2022-10-08T11:55:01.734Z,778
2022-10-08T11:56:45.379Z,779
2022-10-08T11:58:29.091Z,778
2022-10-08T12:00:12.783Z,778
2022-10-08T12:01:56.581Z,777
2022-10-08T12:03:40.225Z,778
2022-10-08T12:05:23.898Z,777
2022-10-08T12:07:07.634Z,778
2022-10-08T12:08:51.347Z,778
2022-10-08T12:10:35.062Z,777
2022-10-08T12:12:18.742Z,778
2022-10-08T12:14:02.434Z,778
2022-10-08T12:15:46.126Z,777
2022-10-08T12:17:29.846Z,778
2022-10-08T12:19:13.621Z,778
2022-10-08T12:20:57.268Z,778
2022-10-08T12:22:41.007Z,778
2022-10-08T12:24:24.735Z,777
2022-10-08T12:26:08.335Z,778
2022-10-08T12:27:52.129Z,778
2022-10-08T12:29:35.789Z,778
2022-10-08T12:31:19.480Z,776
2022-10-08T12:33:03.201Z,777
2022-10-08T12:34:46.882Z,778
2022-10-08T12:36:30.557Z,778
2022-10-08T12:38:14.374Z,777
2022-10-08T12:39:57.995Z,777
2022-10-08T12:41:41.730Z,777
2022-10-08T12:43:25.398Z,778
2022-10-08T12:45:09.096Z,777
2022-10-08T12:46:52.837Z,777
2022-10-08T12:48:36.555Z,777
2022-10-08T12:50:20.202Z,777
2022-10-08T12:52:03.952Z,777
2022-10-08T12:53:47.587Z,778
2022-10-08T12:55:31.286Z,778
2022-10-08T12:57:15.045Z,778
2022-10-08T12:58:58.723Z,778
2022-10-08T13:00:42.405Z,777
2022-10-08T13:02:26.097Z,777
2022-10-08T13:04:09.859Z,778
2022-10-08T13:05:53.507Z,777
2022-10-08T13:07:37.304Z,778
2022-10-08T13:09:20.930Z,778
2022-10-08T13:11:04.666Z,778
2022-10-08T13:12:48.317Z,778
2022-10-08T13:14:32.008Z,777
2022-10-08T13:16:15.804Z,778
2022-10-08T13:17:59.482Z,777
2022-10-08T13:19:43.170Z,778
2022-10-08T13:21:26.831Z,778
2022-10-08T13:23:10.525Z,777
2022-10-08T13:24:54.253Z,777
2022-10-08T13:26:37.981Z,778
2022-10-08T13:28:21.653Z,778
2022-10-08T13:30:05.371Z,669
2022-10-08T13:31:49.124Z,775
2022-10-08T13:33:32.809Z,777
2022-10-08T13:35:16.494Z,778
2022-10-08T13:37:00.277Z,776
2022-10-08T13:38:43.864Z,777
2022-10-08T13:40:27.558Z,777
2022-10-08T13:42:11.274Z,777
2022-10-08T13:43:55.064Z,777
2022-10-08T13:45:38.708Z,777
2022-10-08T13:47:22.399Z,777
2022-10-08T13:50:49.794Z,777
2022-10-08T13:52:33.488Z,777
2022-10-08T13:54:17.231Z,777
2022-10-08T13:56:00.925Z,777
2022-10-08T13:57:44.605Z,777
2022-10-08T13:59:28.303Z,496
2022-10-08T14:01:12.001Z,776
2022-10-08T14:02:55.753Z,778
2022-10-08T14:04:39.435Z,512
2022-10-08T14:06:23.137Z,511
2022-10-08T14:08:06.878Z,536
2022-10-08T14:09:50.553Z,777
2022-10-08T14:11:34.326Z,777
2022-10-08T14:13:17.961Z,777
2022-10-08T14:15:01.651Z,777
2022-10-08T14:16:45.370Z,778
2022-10-08T14:18:29.038Z,777
2022-10-08T14:20:12.721Z,777
2022-10-08T14:21:56.486Z,777
2022-10-08T14:23:40.165Z,777
2022-10-08T14:25:23.887Z,777
2022-10-08T14:27:07.542Z,777
2022-10-08T14:28:51.229Z,777
2022-10-08T14:30:35.042Z,778
2022-10-08T14:32:18.775Z,777
2022-10-08T14:34:02.369Z,777
2022-10-08T14:35:46.088Z,777
2022-10-08T14:37:29.740Z,778
2022-10-08T14:39:13.453Z,777
2022-10-08T14:40:57.187Z,778
2022-10-08T14:42:40.891Z,778
2022-10-08T14:44:24.585Z,778
2022-10-08T14:46:08.264Z,777
2022-10-08T14:47:51.950Z,777
2022-10-08T14:49:35.652Z,778
2022-10-08T14:51:19.377Z,777
2022-10-08T14:53:03.126Z,760
2022-10-08T14:54:46.804Z,725
2022-10-08T14:56:30.464Z,693
2022-10-08T14:58:14.167Z,672
2022-10-08T14:59:57.878Z,657
2022-10-08T15:01:41.636Z,641
2022-10-08T15:03:25.405Z,628
2022-10-08T15:05:09.013Z,616
2022-10-08T15:06:52.747Z,602
2022-10-08T15:08:36.401Z,616
2022-10-08T15:10:20.152Z,551
2022-10-08T15:12:03.881Z,542
2022-10-08T15:13:47.518Z,518
2022-10-08T15:15:31.202Z,583
2022-10-08T15:17:14.906Z,450
2022-10-08T15:18:58.927Z,402
2022-10-08T15:20:42.346Z,422
2022-10-08T15:22:26.061Z,589
2022-10-08T15:24:09.734Z,403
2022-10-08T15:25:53.452Z,447
2022-10-08T15:27:37.257Z,442
2022-10-08T15:29:20.879Z,456
2022-10-08T15:31:04.611Z,407
2022-10-08T15:32:48.357Z,334
2022-10-08T15:34:31.962Z,284
2022-10-08T15:36:15.644Z,391
2022-10-08T15:37:59.400Z,363
2022-10-08T15:39:43.191Z,360
2022-10-08T15:41:26.812Z,359
2022-10-08T15:43:10.487Z,356
2022-10-08T15:44:54.159Z,347
2022-10-08T15:46:37.948Z,343
2022-10-08T15:48:21.605Z,344
2022-10-08T15:50:05.331Z,344
2022-10-08T15:51:48.970Z,339
2022-10-08T15:53:32.663Z,334
2022-10-08T15:55:16.386Z,270
2022-10-08T15:57:00.080Z,251
2022-10-08T15:58:43.811Z,254
2022-10-08T16:00:27.497Z,260
2022-10-08T16:02:11.189Z,262
2022-10-08T16:03:54.858Z,267
2022-10-08T16:05:38.594Z,264
2022-10-08T16:07:22.349Z,248
2022-10-08T16:09:06.065Z,233
2022-10-08T16:10:49.700Z,216
2022-10-08T16:12:33.436Z,212
2022-10-08T16:14:17.094Z,205
2022-10-08T16:16:00.790Z,192
2022-10-08T16:17:44.579Z,179
2022-10-08T16:19:28.266Z,162
2022-10-08T16:21:11.900Z,149
2022-10-08T16:22:55.651Z,140
2022-10-08T16:24:39.309Z,135
2022-10-08T16:26:23.136Z,129
2022-10-08T16:28:06.743Z,120
2022-10-08T16:29:50.425Z,116
2022-10-08T16:31:34.114Z,111
2022-10-08T16:33:17.822Z,104
2022-10-08T16:35:01.589Z,97
2022-10-08T16:36:45.276Z,91
2022-10-08T16:38:28.964Z,86
2022-10-08T16:40:12.633Z,91
2022-10-08T16:41:56.330Z,83
2022-10-08T16:43:40.058Z,78
2022-10-08T16:45:23.863Z,67
2022-10-08T16:47:07.472Z,62
2022-10-08T16:48:51.188Z,58
2022-10-08T16:50:34.857Z,52
2022-10-08T16:52:18.537Z,45
2022-10-08T16:54:02.237Z,40
2022-10-08T16:55:46.042Z,33
2022-10-08T16:57:29.680Z,29
2022-10-08T16:59:13.364Z,28
2022-10-08T17:00:57.043Z,26
2022-10-08T17:02:40.841Z,28
2022-10-08T17:04:24.516Z,25
2022-10-08T17:06:08.131Z,24
2022-10-08T17:07:51.880Z,4
2022-10-08T17:09:35.644Z,3
2022-10-08T17:11:19.299Z,2
2022-10-08T17:13:02.953Z,2
2022-10-08T17:14:46.645Z,2
2022-10-08T17:16:30.404Z,1
2022-10-08T17:18:14.125Z,2
2022-10-08T17:19:57.766Z,2
2022-10-08T17:21:41.482Z,2
2022-10-08T17:23:25.186Z,1
2022-10-08T17:25:08.941Z,1
2022-10-08T17:26:52.700Z,2
2022-10-08T17:28:36.295Z,1
2022-10-08T17:30:19.991Z,0
2022-10-08T17:32:03.713Z,1
2022-10-08T17:33:47.446Z,1
2022-10-08T17:35:31.168Z,2
2022-10-08T17:37:14.819Z,1
2022-10-08T17:38:58.512Z,1
2022-10-08T17:40:42.205Z,1
2022-10-08T17:42:25.890Z,1
2022-10-08T17:44:09.689Z,2
2022-10-08T17:45:53.344Z,1
2022-10-08T17:47:37.022Z,2
2022-10-08T17:49:20.729Z,3
2022-10-08T17:51:04.397Z,2
2022-10-08T17:52:48.153Z,3
2022-10-08T17:54:31.909Z,775
2022-10-08T17:56:15.564Z,775
2022-10-08T17:57:59.227Z,2
2022-10-08T17:59:42.929Z,2
2022-10-08T18:01:26.599Z,2
2022-10-08T18:03:10.310Z,2
2022-10-08T18:04:54.011Z,2
2022-10-08T18:06:37.831Z,2
2022-10-08T18:08:21.432Z,2
2022-10-08T18:10:05.120Z,2
2022-10-08T18:11:48.803Z,2
2022-10-08T18:13:32.597Z,3
2022-10-08T18:15:16.275Z,3
2022-10-08T18:17:00.032Z,3
2022-10-08T18:18:43.643Z,2
2022-10-08T18:20:27.329Z,2
2022-10-08T18:22:11.044Z,3
2022-10-08T18:23:54.728Z,3
2022-10-08T18:25:38.513Z,2
2022-10-08T18:27:22.167Z,2
2022-10-08T18:29:05.947Z,3
2022-10-08T18:30:49.537Z,2
2022-10-08T18:32:33.250Z,2
2022-10-08T18:34:16.960Z,3
2022-10-08T18:36:00.680Z,2
2022-10-08T18:37:44.387Z,1
2022-10-08T18:39:28.094Z,3
2022-10-08T18:41:11.752Z,3
2022-10-08T18:42:55.475Z,3
2022-10-08T18:44:39.170Z,3
2022-10-08T18:46:22.900Z,2
2022-10-08T18:48:06.569Z,2
2022-10-08T18:49:50.260Z,2
2022-10-08T18:51:33.957Z,2
2022-10-08T18:53:17.638Z,2
2022-10-08T18:55:01.450Z,3
2022-10-08T18:56:45.119Z,2
2022-10-08T18:58:28.784Z,2
2022-10-08T19:00:12.484Z,2
2022-10-08T19:01:56.143Z,2
2022-10-08T19:03:39.862Z,2
2022-10-08T19:05:23.544Z,3
2022-10-08T19:07:07.353Z,2
2022-10-08T19:08:50.994Z,3
2022-10-08T19:10:34.661Z,2
2022-10-08T19:12:18.360Z,3
2022-10-08T19:14:02.070Z,2
2022-10-08T19:15:45.856Z,2
2022-10-08T19:17:29.498Z,3
2022-10-08T19:19:13.208Z,2
2022-10-08T19:20:56.862Z,2
2022-10-08T19:22:40.721Z,3
2022-10-08T19:24:24.308Z,3
2022-10-08T19:26:08.067Z,3
2022-10-08T19:27:51.706Z,2
2022-10-08T19:29:35.394Z,3
2022-10-08T19:31:19.105Z,2
2022-10-08T19:33:02.916Z,3
2022-10-08T19:34:46.514Z,2
2022-10-08T19:36:30.288Z,2
2022-10-08T19:38:13.988Z,2
2022-10-08T19:39:57.611Z,2
2022-10-08T19:41:41.309Z,3
2022-10-08T19:43:25.002Z,2
2022-10-08T19:45:08.805Z,3
2022-10-08T19:46:52.467Z,2
2022-10-08T19:48:36.116Z,2
2022-10-08T19:50:19.802Z,3
2022-10-08T19:52:03.535Z,2
2022-10-08T19:53:47.192Z,2
2022-10-08T19:55:30.919Z,3
2022-10-08T19:57:14.679Z,2
2022-10-08T19:58:58.357Z,2
2022-10-08T20:00:42.009Z,3
2022-10-08T20:02:25.696Z,2
2022-10-08T20:04:09.459Z,2
2022-10-08T20:05:53.170Z,3
2022-10-08T20:07:36.970Z,3
2022-10-08T20:09:20.551Z,2
2022-10-08T20:11:04.221Z,2
2022-10-08T20:12:48.047Z,2
2022-10-08T20:14:31.667Z,2
2022-10-08T20:16:15.303Z,2
2022-10-08T20:17:59.053Z,2
2022-10-08T20:19:42.744Z,2
2022-10-08T20:21:26.439Z,3
2022-10-08T20:23:10.166Z,2
2022-10-08T20:24:53.826Z,2
2022-10-08T20:26:37.512Z,3
2022-10-08T20:28:21.279Z,3
2022-10-08T20:30:04.939Z,2
2022-10-08T20:31:48.632Z,2
2022-10-08T20:33:32.393Z,3
2022-10-08T20:35:16.017Z,2
2022-10-08T20:36:59.817Z,2
2022-10-08T20:38:43.487Z,2
2022-10-08T20:40:27.149Z,2
2022-10-08T20:42:10.827Z,2
2022-10-08T20:43:54.632Z,3
2022-10-08T20:45:38.250Z,2
2022-10-08T20:47:22.016Z,3
2022-10-08T20:49:05.677Z,3
2022-10-08T20:50:49.354Z,3
2022-10-08T20:52:33.076Z,3
2022-10-08T20:54:16.856Z,2
2022-10-08T20:56:00.516Z,2
2022-10-08T20:57:44.190Z,3
2022-10-08T20:59:27.895Z,2
2022-10-08T21:01:11.593Z,2
2022-10-08T21:02:55.292Z,3
2022-10-08T21:04:39.040Z,2
2022-10-08T21:06:22.836Z,3
2022-10-08T21:08:06.469Z,2
2022-10-08T21:09:50.081Z,2
2022-10-08T21:11:33.804Z,3
2022-10-08T21:13:17.475Z,3
2022-10-08T21:15:01.231Z,3
2022-10-08T21:16:44.921Z,2
2022-10-08T21:18:28.608Z,2
2022-10-08T21:20:12.337Z,3
2022-10-08T21:21:56.017Z,2
2022-10-08T21:23:39.690Z,3
2022-10-08T21:25:23.504Z,2
2022-10-08T21:27:07.133Z,2
2022-10-08T21:28:50.815Z,2
2022-10-08T21:30:34.488Z,3
2022-10-08T21:32:18.195Z,2
2022-10-08T21:34:01.889Z,2
2022-10-08T21:35:45.650Z,3
2022-10-08T21:37:29.339Z,2
2022-10-08T21:39:13.037Z,2
2022-10-08T21:40:56.699Z,3
2022-10-08T21:42:40.464Z,2
2022-10-08T21:44:24.085Z,2
2022-10-08T21:46:07.856Z,2
2022-10-08T21:47:51.549Z,3
2022-10-08T21:49:35.253Z,2
2022-10-08T21:51:18.899Z,2
2022-10-08T21:53:02.603Z,2
2022-10-08T21:54:46.478Z,3
2022-10-08T21:56:30.086Z,2
2022-10-08T21:58:13.751Z,2
2022-10-08T21:59:57.421Z,2
2022-10-08T22:01:41.107Z,2
2022-10-08T22:03:24.815Z,3
2022-10-08T22:05:08.525Z,3
2022-10-08T22:06:52.317Z,2
2022-10-08T22:08:35.974Z,2
2022-10-08T22:10:19.630Z,2
2022-10-08T22:12:03.312Z,2
2022-10-08T22:13:47.126Z,3
2022-10-08T22:15:30.724Z,2
2022-10-08T22:17:14.472Z,2
2022-10-08T22:18:58.157Z,2
2022-10-08T22:20:41.829Z,2
2022-10-08T22:22:25.528Z,2
2022-10-08T22:24:09.230Z,3
2022-10-08T22:25:52.906Z,2
2022-10-08T22:27:36.671Z,2
2022-10-08T22:29:20.356Z,3
2022-10-08T22:31:04.074Z,2
2022-10-08T22:32:47.862Z,2
2022-10-08T22:34:31.432Z,2
2022-10-08T22:36:15.141Z,2
2022-10-08T22:37:58.883Z,3
2022-10-08T22:39:42.568Z,2
2022-10-08T22:41:26.243Z,79
2022-10-08T22:43:09.976Z,79
2022-10-08T22:44:53.671Z,1
2022-10-08T22:46:37.374Z,1
2022-10-08T22:48:21.083Z,1
2022-10-08T22:50:04.783Z,1
2022-10-08T22:51:48.456Z,2
2022-10-08T22:53:32.241Z,1
2022-10-08T22:55:15.862Z,1
2022-10-08T22:56:59.676Z,2
2022-10-08T22:58:43.294Z,1
2022-10-08T23:00:26.968Z,1
2022-10-08T23:02:10.651Z,1
2022-10-08T23:03:54.359Z,1
2022-10-08T23:05:38.058Z,0
2022-10-08T23:07:21.755Z,2
2022-10-08T23:09:05.517Z,1
2022-10-08T23:10:49.175Z,1
2022-10-08T23:12:32.881Z,1
2022-10-08T23:14:16.572Z,1
2022-10-08T23:16:00.283Z,1
2022-10-08T23:17:44.019Z,1
2022-10-08T23:19:27.712Z,1
2022-10-08T23:21:11.397Z,2
2022-10-08T23:22:55.080Z,1
2022-10-08T23:24:38.867Z,1
2022-10-08T23:26:22.540Z,0
2022-10-08T23:28:06.233Z,1
2022-10-08T23:29:50.014Z,1
2022-10-08T23:31:33.590Z,1
2022-10-08T23:33:17.306Z,1
2022-10-08T23:35:01.085Z,2
2022-10-08T23:36:44.761Z,1
2022-10-08T23:38:28.457Z,1
2022-10-08T23:40:12.116Z,1
2022-10-08T23:41:55.826Z,2
2022-10-08T23:43:39.508Z,1
2022-10-08T23:45:23.287Z,0
2022-10-08T23:47:07.025Z,0
2022-10-08T23:48:50.662Z,1
2022-10-08T23:50:34.320Z,0
2022-10-08T23:52:18.013Z,0
2022-10-08T23:54:01.817Z,0
2022-10-08T23:55:45.476Z,0
2022-10-08T23:57:29.162Z,0
2022-10-08T23:59:12.838Z,0
